Thunder radar more information blitzortung!


Radar de pluja more information rain snow radar


Visita la nostra xarxa de llocs de meteo:

Template documentation
and downloads

And another site



No particular awareness of the weather is required.    There are no Weather-warnings

Pagina Historial Weather Underground text

Diari Resum May 21, 2017 Unitats:  Tant    Imperial   Mètric
« Previous Dia
SegĂźent Dia »
Diari Setmana Mensual Anual Personalitzada
  Maxima: Minima: Media:
Temperatura: TemperatureC °F /  -17.8 °C 11.4 °F /  -11.4 °C 20.6 °F /  -6.3 °C
Punt de rosada: DewpointC °F /  -17.8 °C 7.4 °F /  -13.7 °C 10 °F /  -12.2 °C
Humitat: Humidity % 39 % 52 %
Wind Speed: WindSpeedKMH mph /  0 km/h - 7.6 mph /  12.2 km/h
RĂ fegues de vent: WindSpeedGustKMH mph /  0 km/h - -
Vent:- - SSW
Pression baro: PressurehPa in /  0 hPa 1018.8 in /  34496.6 hPa -
Precipitacions: 0.0 in /  0 mm    
Historical Graphs
 
 
Dades de taula per May 21, 2017
Temps Temperatura Punt de rosada Pression baro Vent Wind Speed RĂ fegues de vent Humitat Rainfall Rate (Hourly)
TemperatureC °F /  -17.8 °C DewpointC °F /  -17.8 °C PressurehPa in /  0 hPa Calm     Humidity % HourlyPrecipMM in /  0 mm
00:00 12.5 °F /  -10.8 °C 8.8 °F /  -12.9 °C 1023.9 in /  34669.3 hPa SSW 1.6 mph /  2.6 km/h 1.6 mph /  2.6 km/h 78 % 0.0 in /  0 mm
00:04 15.5 °F /  -9.2 °C 10.3 °F /  -12.1 °C 1026.0 in /  34740.4 hPa NE 5.6 mph /  9 km/h 5.6 mph /  9 km/h 71 % 0.0 in /  0 mm
00:09 15.4 °F /  -9.2 °C 10.2 °F /  -12.1 °C 1026.0 in /  34740.4 hPa NE 3.7 mph /  6 km/h 3.7 mph /  6 km/h 71 % 0.0 in /  0 mm
00:10 12.4 °F /  -10.9 °C 8.7 °F /  -12.9 °C 1024.9 in /  34703.1 hPa Calm     78 % 0.0 in /  0 mm
00:20 12.1 °F /  -11.1 °C 8.4 °F /  -13.1 °C 1024.9 in /  34703.1 hPa Calm     78 % 0.0 in /  0 mm
00:30 12.0 °F /  -11.1 °C 8.4 °F /  -13.1 °C 1023.9 in /  34669.3 hPa ESE 1.6 mph /  2.6 km/h 3.2 mph /  5.1 km/h 79 % 0.0 in /  0 mm
00:40 11.9 °F /  -11.2 °C 8.4 °F /  -13.1 °C 1023.9 in /  34669.3 hPa ENE 1.6 mph /  2.6 km/h 3.2 mph /  5.1 km/h 79 % 0.0 in /  0 mm
00:50 11.9 °F /  -11.2 °C 8.4 °F /  -13.1 °C 1023.9 in /  34669.3 hPa NE 1.6 mph /  2.6 km/h 3.2 mph /  5.1 km/h 79 % 0.0 in /  0 mm
01:00 11.8 °F /  -11.2 °C 8.3 °F /  -13.2 °C 1023.9 in /  34669.3 hPa Calm   1.6 mph /  2.6 km/h 79 % 0.0 in /  0 mm
01:10 11.7 °F /  -11.3 °C 8.2 °F /  -13.2 °C 1023.9 in /  34669.3 hPa Calm     79 % 0.0 in /  0 mm
01:20 11.6 °F /  -11.3 °C 8.1 °F /  -13.3 °C 1023.9 in /  34669.3 hPa East 1.6 mph /  2.6 km/h 1.6 mph /  2.6 km/h 79 % 0.0 in /  0 mm
01:30 11.5 °F /  -11.4 °C 8.0 °F /  -13.3 °C 1023.9 in /  34669.3 hPa Calm     79 % 0.0 in /  0 mm
01:40 11.4 °F /  -11.4 °C 8.1 °F /  -13.3 °C 1023.9 in /  34669.3 hPa Calm     80 % 0.0 in /  0 mm
01:50 11.4 °F /  -11.4 °C 8.1 °F /  -13.3 °C 1023.9 in /  34669.3 hPa NNE 1.6 mph /  2.6 km/h 1.6 mph /  2.6 km/h 80 % 0.0 in /  0 mm
02:00 11.5 °F /  -11.4 °C 8.2 °F /  -13.2 °C 1024.9 in /  34703.1 hPa Calm   3.2 mph /  5.1 km/h 80 % 0.0 in /  0 mm
02:10 11.8 °F /  -11.2 °C 8.4 °F /  -13.1 °C 1023.9 in /  34669.3 hPa Calm   3.2 mph /  5.1 km/h 80 % 0.0 in /  0 mm
02:20 12.0 °F /  -11.1 °C 8.7 °F /  -12.9 °C 1023.9 in /  34669.3 hPa ESE 1.6 mph /  2.6 km/h 3.2 mph /  5.1 km/h 80 % 0.0 in /  0 mm
02:30 12.1 °F /  -11.1 °C 8.6 °F /  -13 °C 1023.9 in /  34669.3 hPa South 3.2 mph /  5.1 km/h 3.2 mph /  5.1 km/h 79 % 0.0 in /  0 mm
02:40 12.2 °F /  -11 °C 8.7 °F /  -12.9 °C 1024.9 in /  34703.1 hPa SW 1.6 mph /  2.6 km/h 3.2 mph /  5.1 km/h 79 % 0.0 in /  0 mm
02:50 12.4 °F /  -10.9 °C 8.8 °F /  -12.9 °C 1024.9 in /  34703.1 hPa WSW 1.6 mph /  2.6 km/h 4.8 mph /  7.7 km/h 79 % 0.0 in /  0 mm
03:00 13.1 °F /  -10.5 °C 9.6 °F /  -12.4 °C 1024.9 in /  34703.1 hPa Calm   1.6 mph /  2.6 km/h 79 % 0.0 in /  0 mm
03:10 13.9 °F /  -10.1 °C 9.9 °F /  -12.3 °C 1024.9 in /  34703.1 hPa SSW 3.2 mph /  5.1 km/h 3.2 mph /  5.1 km/h 77 % 0.0 in /  0 mm
03:20 13.7 °F /  -10.2 °C 9.6 °F /  -12.4 °C 1024.9 in /  34703.1 hPa SSW 1.6 mph /  2.6 km/h 3.2 mph /  5.1 km/h 76 % 0.0 in /  0 mm
03:30 14.3 °F /  -9.8 °C 10.1 °F /  -12.2 °C 1023.9 in /  34669.3 hPa SW 3.2 mph /  5.1 km/h 3.2 mph /  5.1 km/h 76 % 0.0 in /  0 mm
03:40 15.1 °F /  -9.4 °C 10.7 °F /  -11.8 °C 1023.9 in /  34669.3 hPa SW 1.6 mph /  2.6 km/h 3.2 mph /  5.1 km/h 75 % 0.0 in /  0 mm
03:50 15.9 °F /  -8.9 °C 11.3 °F /  -11.5 °C 1023.9 in /  34669.3 hPa Calm   3.2 mph /  5.1 km/h 74 % 0.0 in /  0 mm
04:00 15.7 °F /  -9.1 °C 10.4 °F /  -12 °C 1024.9 in /  34703.1 hPa NE 4.8 mph /  7.7 km/h 4.8 mph /  7.7 km/h 71 % 0.0 in /  0 mm
04:10 16.1 °F /  -8.8 °C 10.8 °F /  -11.8 °C 1023.9 in /  34669.3 hPa NE 3.2 mph /  5.1 km/h 6.4 mph /  10.3 km/h 71 % 0.0 in /  0 mm
04:20 16.3 °F /  -8.7 °C 10.8 °F /  -11.8 °C 1023.9 in /  34669.3 hPa ENE 3.2 mph /  5.1 km/h 4.8 mph /  7.7 km/h 70 % 0.0 in /  0 mm
04:30 16.8 °F /  -8.4 °C 11.1 °F /  -11.6 °C 1023.9 in /  34669.3 hPa ENE 3.2 mph /  5.1 km/h 4.8 mph /  7.7 km/h 69 % 0.0 in /  0 mm
04:40 17.8 °F /  -7.9 °C 11.6 °F /  -11.3 °C 1023.9 in /  34669.3 hPa Calm   3.2 mph /  5.1 km/h 67 % 0.0 in /  0 mm
04:50 17.9 °F /  -7.8 °C 11.2 °F /  -11.6 °C 1023.9 in /  34669.3 hPa NE 3.2 mph /  5.1 km/h 4.8 mph /  7.7 km/h 65 % 0.0 in /  0 mm
05:00 18.2 °F /  -7.7 °C 11.5 °F /  -11.4 °C 1023.9 in /  34669.3 hPa NE 1.6 mph /  2.6 km/h 4.8 mph /  7.7 km/h 65 % 0.0 in /  0 mm
05:10 18.4 °F /  -7.6 °C 11.4 °F /  -11.4 °C 1023.9 in /  34669.3 hPa ENE 4.8 mph /  7.7 km/h 4.8 mph /  7.7 km/h 64 % 0.0 in /  0 mm
05:20 18.8 °F /  -7.3 °C 11.6 °F /  -11.3 °C 1023.9 in /  34669.3 hPa ENE 1.6 mph /  2.6 km/h 6.4 mph /  10.3 km/h 63 % 0.0 in /  0 mm
05:30 19.7 °F /  -6.8 °C 11.9 °F /  -11.2 °C 1023.9 in /  34669.3 hPa SE 3.2 mph /  5.1 km/h 3.2 mph /  5.1 km/h 61 % 0.0 in /  0 mm
05:40 19.8 °F /  -6.8 °C 11.8 °F /  -11.2 °C 1023.9 in /  34669.3 hPa South 3.2 mph /  5.1 km/h 4.8 mph /  7.7 km/h 60 % 0.0 in /  0 mm
05:50 20.2 °F /  -6.6 °C 11.7 °F /  -11.3 °C 1023.9 in /  34669.3 hPa SSW 1.6 mph /  2.6 km/h 3.2 mph /  5.1 km/h 58 % 0.0 in /  0 mm
06:00 20.8 °F /  -6.2 °C 11.9 °F /  -11.2 °C 1022.9 in /  34635.4 hPa SSW 3.2 mph /  5.1 km/h 6.4 mph /  10.3 km/h 57 % 0.0 in /  0 mm
06:10 21.1 °F /  -6.1 °C 12.0 °F /  -11.1 °C 1023.9 in /  34669.3 hPa SSW 3.2 mph /  5.1 km/h 4.8 mph /  7.7 km/h 56 % 0.0 in /  0 mm
06:20 21.4 °F /  -5.9 °C 11.7 °F /  -11.3 °C 1023.9 in /  34669.3 hPa SSW 3.2 mph /  5.1 km/h 8.0 mph /  12.9 km/h 54 % 0.0 in /  0 mm
06:30 21.6 °F /  -5.8 °C 11.3 °F /  -11.5 °C 1023.9 in /  34669.3 hPa SW 4.8 mph /  7.7 km/h 8.0 mph /  12.9 km/h 52 % 0.0 in /  0 mm
06:40 22.3 °F /  -5.4 °C 11.9 °F /  -11.2 °C 1023.9 in /  34669.3 hPa WSW 4.8 mph /  7.7 km/h 8.0 mph /  12.9 km/h 52 % 0.0 in /  0 mm
06:50 22.2 °F /  -5.4 °C 11.6 °F /  -11.3 °C 1023.9 in /  34669.3 hPa SW 4.8 mph /  7.7 km/h 9.7 mph /  15.6 km/h 51 % 0.0 in /  0 mm
07:00 23.2 °F /  -4.9 °C 12.2 °F /  -11 °C 1023.9 in /  34669.3 hPa SSW 8.0 mph /  12.9 km/h 8.0 mph /  12.9 km/h 50 % 0.0 in /  0 mm
07:10 23.4 °F /  -4.8 °C 12.1 °F /  -11.1 °C 1023.9 in /  34669.3 hPa SSW 4.8 mph /  7.7 km/h 4.8 mph /  7.7 km/h 49 % 0.0 in /  0 mm
12:14 23.6 °F /  -4.7 °C 12.3 °F /  -10.9 °C 1023.9 in /  34669.3 hPa SSW 5.6 mph /  9 km/h 6.1 mph /  9.8 km/h 49 % 0.0 in /  0 mm
12:15 23.6 °F /  -4.7 °C 12.3 °F /  -10.9 °C 1023.9 in /  34669.3 hPa SW 5.6 mph /  9 km/h 6.1 mph /  9.8 km/h 49 % 0.0 in /  0 mm
12:20 23.7 °F /  -4.6 °C 12.3 °F /  -10.9 °C 1023.9 in /  34669.3 hPa SW 9.3 mph /  15 km/h 9.3 mph /  15 km/h 49 % 0.0 in /  0 mm
12:25 23.8 °F /  -4.6 °C 12.1 °F /  -11.1 °C 1023.9 in /  34669.3 hPa SW 9.3 mph /  15 km/h 9.3 mph /  15 km/h 48 % 0.0 in /  0 mm
12:30 23.8 °F /  -4.6 °C 12.4 °F /  -10.9 °C 1023.9 in /  34669.3 hPa SW 13.0 mph /  20.9 km/h 13.0 mph /  20.9 km/h 49 % 0.0 in /  0 mm
12:35 24.1 °F /  -4.4 °C 12.7 °F /  -10.7 °C 1023.9 in /  34669.3 hPa SW 13.0 mph /  20.9 km/h 13.0 mph /  20.9 km/h 49 % 0.0 in /  0 mm
12:40 24.5 °F /  -4.2 °C 13.1 °F /  -10.5 °C 1023.9 in /  34669.3 hPa SSW 7.4 mph /  11.9 km/h 7.4 mph /  11.9 km/h 49 % 0.0 in /  0 mm
12:45 23.9 °F /  -4.5 °C 12.6 °F /  -10.8 °C 1023.9 in /  34669.3 hPa SW 9.3 mph /  15 km/h 10.8 mph /  17.4 km/h 49 % 0.0 in /  0 mm
12:50 23.8 °F /  -4.6 °C 12.4 °F /  -10.9 °C 1023.9 in /  34669.3 hPa SSW 9.3 mph /  15 km/h 9.3 mph /  15 km/h 49 % 0.0 in /  0 mm
12:55 23.7 °F /  -4.6 °C 12.3 °F /  -10.9 °C 1022.9 in /  34635.4 hPa WNW 14.8 mph /  23.8 km/h 14.8 mph /  23.8 km/h 49 % 0.0 in /  0 mm
13:00 24.0 °F /  -4.4 °C 12.6 °F /  -10.8 °C 1022.9 in /  34635.4 hPa SSW 11.1 mph /  17.9 km/h 11.1 mph /  17.9 km/h 49 % 0.0 in /  0 mm
13:05 23.8 °F /  -4.6 °C 12.4 °F /  -10.9 °C 1022.9 in /  34635.4 hPa WNW 16.7 mph /  26.9 km/h 16.7 mph /  26.9 km/h 49 % 0.0 in /  0 mm
13:10 24.1 °F /  -4.4 °C 12.4 °F /  -10.9 °C 1022.9 in /  34635.4 hPa SSW 7.4 mph /  11.9 km/h 7.4 mph /  11.9 km/h 48 % 0.0 in /  0 mm
13:15 24.2 °F /  -4.3 °C 12.5 °F /  -10.8 °C 1022.9 in /  34635.4 hPa WSW 18.5 mph /  29.8 km/h 18.5 mph /  29.8 km/h 48 % 0.0 in /  0 mm
13:17 24.1 °F /  -4.4 °C 12.4 °F /  -10.9 °C 1022.9 in /  34635.4 hPa SSW 14.8 mph /  23.8 km/h 14.8 mph /  23.8 km/h 48 % 0.0 in /  0 mm
13:22 24.1 °F /  -4.4 °C 12.4 °F /  -10.9 °C 1022.9 in /  34635.4 hPa WSW 7.4 mph /  11.9 km/h 7.4 mph /  11.9 km/h 48 % 0.0 in /  0 mm
13:27 24.4 °F /  -4.2 °C 12.7 °F /  -10.7 °C 1022.9 in /  34635.4 hPa SW 9.7 mph /  15.6 km/h 9.7 mph /  15.6 km/h 48 % 0.0 in /  0 mm
13:32 24.3 °F /  -4.3 °C 12.3 °F /  -10.9 °C 1022.9 in /  34635.4 hPa SW 5.6 mph /  9 km/h 6.1 mph /  9.8 km/h 47 % 0.0 in /  0 mm
13:37 24.6 °F /  -4.1 °C 12.6 °F /  -10.8 °C 1022.9 in /  34635.4 hPa SW 5.6 mph /  9 km/h 5.6 mph /  9 km/h 47 % 0.0 in /  0 mm
13:42 24.9 °F /  -3.9 °C 12.8 °F /  -10.7 °C 1022.9 in /  34635.4 hPa South 10.3 mph /  16.6 km/h 10.3 mph /  16.6 km/h 47 % 0.0 in /  0 mm
13:47 25.1 °F /  -3.8 °C 12.7 °F /  -10.7 °C 1022.9 in /  34635.4 hPa SE 7.4 mph /  11.9 km/h 7.4 mph /  11.9 km/h 46 % 0.0 in /  0 mm
13:52 25.0 °F /  -3.9 °C 12.2 °F /  -11 °C 1022.9 in /  34635.4 hPa ESE 12.6 mph /  20.3 km/h 12.6 mph /  20.3 km/h 45 % 0.0 in /  0 mm
13:57 25.2 °F /  -3.8 °C 12.1 °F /  -11.1 °C 1022.9 in /  34635.4 hPa ESE 7.4 mph /  11.9 km/h 7.4 mph /  11.9 km/h 44 % 0.0 in /  0 mm
14:02 25.1 °F /  -3.8 °C 12.0 °F /  -11.1 °C 1022.9 in /  34635.4 hPa SW 7.4 mph /  11.9 km/h 7.4 mph /  11.9 km/h 44 % 0.0 in /  0 mm
14:07 24.7 °F /  -4.1 °C 11.9 °F /  -11.2 °C 1022.9 in /  34635.4 hPa SSW 6.4 mph /  10.3 km/h 6.4 mph /  10.3 km/h 45 % 0.0 in /  0 mm
14:12 25.2 °F /  -3.8 °C 12.1 °F /  -11.1 °C 1021.9 in /  34601.5 hPa SSW 9.3 mph /  15 km/h 9.3 mph /  15 km/h 44 % 0.0 in /  0 mm
14:17 25.7 °F /  -3.5 °C 12.6 °F /  -10.8 °C 1021.9 in /  34601.5 hPa South 7.4 mph /  11.9 km/h 7.4 mph /  11.9 km/h 44 % 0.0 in /  0 mm
14:22 25.4 °F /  -3.7 °C 11.9 °F /  -11.2 °C 1021.9 in /  34601.5 hPa SE 9.3 mph /  15 km/h 9.3 mph /  15 km/h 43 % 0.0 in /  0 mm
14:27 25.3 °F /  -3.7 °C 11.8 °F /  -11.2 °C 1021.9 in /  34601.5 hPa WSW 4.2 mph /  6.8 km/h 4.2 mph /  6.8 km/h 43 % 0.0 in /  0 mm
14:32 25.0 °F /  -3.9 °C 11.6 °F /  -11.3 °C 1021.9 in /  34601.5 hPa SE 9.3 mph /  15 km/h 9.3 mph /  15 km/h 43 % 0.0 in /  0 mm
14:37 25.7 °F /  -3.5 °C 12.2 °F /  -11 °C 1021.9 in /  34601.5 hPa SSW 5.6 mph /  9 km/h 5.6 mph /  9 km/h 43 % 0.0 in /  0 mm
14:42 25.8 °F /  -3.4 °C 12.3 °F /  -10.9 °C 1021.9 in /  34601.5 hPa West 4.2 mph /  6.8 km/h 4.2 mph /  6.8 km/h 43 % 0.0 in /  0 mm
14:47 25.7 °F /  -3.5 °C 12.2 °F /  -11 °C 1021.9 in /  34601.5 hPa WSW 13.0 mph /  20.9 km/h 13.0 mph /  20.9 km/h 43 % 0.0 in /  0 mm
14:52 25.5 °F /  -3.6 °C 11.7 °F /  -11.3 °C 1021.9 in /  34601.5 hPa SW 13.0 mph /  20.9 km/h 13.0 mph /  20.9 km/h 42 % 0.0 in /  0 mm
14:57 25.7 °F /  -3.5 °C 11.8 °F /  -11.2 °C 1021.9 in /  34601.5 hPa ESE 7.4 mph /  11.9 km/h 7.4 mph /  11.9 km/h 42 % 0.0 in /  0 mm
15:02 25.8 °F /  -3.4 °C 11.9 °F /  -11.2 °C 1021.9 in /  34601.5 hPa WSW 13.0 mph /  20.9 km/h 13.0 mph /  20.9 km/h 42 % 0.0 in /  0 mm
15:07 25.7 °F /  -3.5 °C 11.8 °F /  -11.2 °C 1021.9 in /  34601.5 hPa SSW 9.3 mph /  15 km/h 9.3 mph /  15 km/h 42 % 0.0 in /  0 mm
15:12 26.1 °F /  -3.3 °C 12.2 °F /  -11 °C 1021.9 in /  34601.5 hPa SSW 13.0 mph /  20.9 km/h 13.0 mph /  20.9 km/h 42 % 0.0 in /  0 mm
15:17 25.8 °F /  -3.4 °C 11.9 °F /  -11.2 °C 1021.9 in /  34601.5 hPa SW 11.1 mph /  17.9 km/h 11.1 mph /  17.9 km/h 42 % 0.0 in /  0 mm
15:22 25.9 °F /  -3.4 °C 11.6 °F /  -11.3 °C 1021.9 in /  34601.5 hPa WSW 9.3 mph /  15 km/h 9.3 mph /  15 km/h 41 % 0.0 in /  0 mm
15:27 25.9 °F /  -3.4 °C 12.0 °F /  -11.1 °C 1021.9 in /  34601.5 hPa WSW 5.6 mph /  9 km/h 5.6 mph /  9 km/h 42 % 0.0 in /  0 mm
15:32 26.2 °F /  -3.2 °C 12.3 °F /  -10.9 °C 1021.9 in /  34601.5 hPa WSW 9.3 mph /  15 km/h 9.3 mph /  15 km/h 42 % 0.0 in /  0 mm
15:37 26.0 °F /  -3.3 °C 11.7 °F /  -11.3 °C 1021.9 in /  34601.5 hPa WSW 13.0 mph /  20.9 km/h 13.0 mph /  20.9 km/h 41 % 0.0 in /  0 mm
15:42 26.0 °F /  -3.3 °C 11.7 °F /  -11.3 °C 1021.9 in /  34601.5 hPa SSW 16.7 mph /  26.9 km/h 16.7 mph /  26.9 km/h 41 % 0.0 in /  0 mm
15:47 26.2 °F /  -3.2 °C 11.9 °F /  -11.2 °C 1021.9 in /  34601.5 hPa SSW 11.1 mph /  17.9 km/h 11.1 mph /  17.9 km/h 41 % 0.0 in /  0 mm
15:48 26.1 °F /  -3.3 °C 11.8 °F /  -11.2 °C 1021.9 in /  34601.5 hPa SW 13.0 mph /  20.9 km/h 13.0 mph /  20.9 km/h 41 % 0.0 in /  0 mm
15:53 25.7 °F /  -3.5 °C 11.4 °F /  -11.4 °C 1020.9 in /  34567.7 hPa SW 14.8 mph /  23.8 km/h 14.8 mph /  23.8 km/h 41 % 0.0 in /  0 mm
15:58 25.6 °F /  -3.6 °C 11.4 °F /  -11.4 °C 1020.9 in /  34567.7 hPa SW 14.8 mph /  23.8 km/h 14.8 mph /  23.8 km/h 41 % 0.0 in /  0 mm
16:03 25.6 °F /  -3.6 °C 11.4 °F /  -11.4 °C 1020.9 in /  34567.7 hPa West 13.0 mph /  20.9 km/h 13.0 mph /  20.9 km/h 41 % 0.0 in /  0 mm
16:08 25.5 °F /  -3.6 °C 11.3 °F /  -11.5 °C 1020.9 in /  34567.7 hPa WSW 14.8 mph /  23.8 km/h 14.8 mph /  23.8 km/h 41 % 0.0 in /  0 mm
16:13 25.8 °F /  -3.4 °C 11.6 °F /  -11.3 °C 1020.9 in /  34567.7 hPa South 9.3 mph /  15 km/h 9.3 mph /  15 km/h 41 % 0.0 in /  0 mm
16:18 25.5 °F /  -3.6 °C 11.3 °F /  -11.5 °C 1020.9 in /  34567.7 hPa SW 13.0 mph /  20.9 km/h 13.0 mph /  20.9 km/h 41 % 0.0 in /  0 mm
16:19 25.6 °F /  -3.6 °C 11.4 °F /  -11.4 °C 1020.9 in /  34567.7 hPa SW 14.0 mph /  22.5 km/h 14.0 mph /  22.5 km/h 41 % 0.0 in /  0 mm
16:24 25.6 °F /  -3.6 °C 11.4 °F /  -11.4 °C 1020.9 in /  34567.7 hPa West 13.0 mph /  20.9 km/h 13.0 mph /  20.9 km/h 41 % 0.0 in /  0 mm
16:29 25.6 °F /  -3.6 °C 11.0 °F /  -11.7 °C 1020.9 in /  34567.7 hPa SW 22.2 mph /  35.7 km/h 22.2 mph /  35.7 km/h 40 % 0.0 in /  0 mm
16:34 25.6 °F /  -3.6 °C 11.0 °F /  -11.7 °C 1020.9 in /  34567.7 hPa South 11.1 mph /  17.9 km/h 11.1 mph /  17.9 km/h 40 % 0.0 in /  0 mm
16:39 25.6 °F /  -3.6 °C 11.0 °F /  -11.7 °C 1020.9 in /  34567.7 hPa SSW 13.0 mph /  20.9 km/h 13.0 mph /  20.9 km/h 40 % 0.0 in /  0 mm
16:44 25.3 °F /  -3.7 °C 10.7 °F /  -11.8 °C 1020.9 in /  34567.7 hPa SW 14.8 mph /  23.8 km/h 14.8 mph /  23.8 km/h 40 % 0.0 in /  0 mm
16:49 25.6 °F /  -3.6 °C 11.0 °F /  -11.7 °C 1020.9 in /  34567.7 hPa WSW 9.3 mph /  15 km/h 9.3 mph /  15 km/h 40 % 0.0 in /  0 mm
16:54 25.9 °F /  -3.4 °C 11.3 °F /  -11.5 °C 1020.9 in /  34567.7 hPa SSW 7.4 mph /  11.9 km/h 7.4 mph /  11.9 km/h 40 % 0.0 in /  0 mm
16:59 26.1 °F /  -3.3 °C 11.4 °F /  -11.4 °C 1020.9 in /  34567.7 hPa SW 9.5 mph /  15.3 km/h 9.5 mph /  15.3 km/h 40 % 0.0 in /  0 mm
17:04 25.5 °F /  -3.6 °C 10.9 °F /  -11.7 °C 1020.9 in /  34567.7 hPa WSW 18.5 mph /  29.8 km/h 18.5 mph /  29.8 km/h 40 % 0.0 in /  0 mm
17:09 25.3 °F /  -3.7 °C 10.7 °F /  -11.8 °C 1019.9 in /  34533.8 hPa SW 11.9 mph /  19.2 km/h 11.9 mph /  19.2 km/h 40 % 0.0 in /  0 mm
17:14 25.5 °F /  -3.6 °C 10.9 °F /  -11.7 °C 1019.9 in /  34533.8 hPa SW 13.0 mph /  20.9 km/h 13.0 mph /  20.9 km/h 40 % 0.0 in /  0 mm
17:19 25.6 °F /  -3.6 °C 10.6 °F /  -11.9 °C 1019.9 in /  34533.8 hPa SSE 9.3 mph /  15 km/h 9.3 mph /  15 km/h 39 % 0.0 in /  0 mm
17:24 25.1 °F /  -3.8 °C 10.2 °F /  -12.1 °C 1019.9 in /  34533.8 hPa WSW 11.1 mph /  17.9 km/h 11.1 mph /  17.9 km/h 39 % 0.0 in /  0 mm
17:29 25.2 °F /  -3.8 °C 10.3 °F /  -12.1 °C 1019.9 in /  34533.8 hPa SSW 7.6 mph /  12.2 km/h 7.6 mph /  12.2 km/h 39 % 0.0 in /  0 mm
17:34 24.6 °F /  -4.1 °C 10.1 °F /  -12.2 °C 1019.9 in /  34533.8 hPa SW 13.0 mph /  20.9 km/h 13.0 mph /  20.9 km/h 40 % 0.0 in /  0 mm
17:39 24.4 °F /  -4.2 °C 9.9 °F /  -12.3 °C 1019.9 in /  34533.8 hPa SSW 23.7 mph /  38.1 km/h 23.7 mph /  38.1 km/h 40 % 0.0 in /  0 mm
17:40 24.4 °F /  -4.2 °C 9.9 °F /  -12.3 °C 1019.9 in /  34533.8 hPa SSW 9.5 mph /  15.3 km/h 9.5 mph /  15.3 km/h 40 % 0.0 in /  0 mm
17:45 24.2 °F /  -4.3 °C 9.7 °F /  -12.4 °C 1019.9 in /  34533.8 hPa SW 16.9 mph /  27.2 km/h 16.9 mph /  27.2 km/h 40 % 0.0 in /  0 mm
17:50 24.0 °F /  -4.4 °C 9.6 °F /  -12.4 °C 1019.9 in /  34533.8 hPa SW 15.6 mph /  25.1 km/h 15.6 mph /  25.1 km/h 40 % 0.0 in /  0 mm
17:55 24.0 °F /  -4.4 °C 9.6 °F /  -12.4 °C 1018.8 in /  34496.6 hPa South 11.1 mph /  17.9 km/h 11.1 mph /  17.9 km/h 40 % 0.0 in /  0 mm
18:00 24.1 °F /  -4.4 °C 9.7 °F /  -12.4 °C 1018.8 in /  34496.6 hPa SW 9.7 mph /  15.6 km/h 14.5 mph /  23.3 km/h 40 % 0.0 in /  0 mm
18:05 24.1 °F /  -4.4 °C 10.0 °F /  -12.2 °C 1018.8 in /  34496.6 hPa SW 8.0 mph /  12.9 km/h 16.1 mph /  25.9 km/h 41 % 0.0 in /  0 mm
18:10 23.9 °F /  -4.5 °C 9.8 °F /  -12.3 °C 1019.9 in /  34533.8 hPa WSW 16.7 mph /  26.9 km/h 16.7 mph /  26.9 km/h 41 % 0.0 in /  0 mm
18:15 23.6 °F /  -4.7 °C 9.2 °F /  -12.7 °C 1019.9 in /  34533.8 hPa SW 10.0 mph /  16.1 km/h 10.0 mph /  16.1 km/h 40 % 0.0 in /  0 mm
18:20 23.3 °F /  -4.8 °C 9.3 °F /  -12.6 °C 1019.9 in /  34533.8 hPa SW 13.0 mph /  20.9 km/h 13.0 mph /  20.9 km/h 41 % 0.0 in /  0 mm
18:25 23.3 °F /  -4.8 °C 9.3 °F /  -12.6 °C 1019.9 in /  34533.8 hPa SW 7.4 mph /  11.9 km/h 7.4 mph /  11.9 km/h 41 % 0.0 in /  0 mm
18:30 23.2 °F /  -4.9 °C 9.2 °F /  -12.7 °C 1019.9 in /  34533.8 hPa SW 16.7 mph /  26.9 km/h 16.7 mph /  26.9 km/h 41 % 0.0 in /  0 mm
18:35 22.5 °F /  -5.3 °C 8.9 °F /  -12.8 °C 1019.9 in /  34533.8 hPa West 13.0 mph /  20.9 km/h 13.0 mph /  20.9 km/h 42 % 0.0 in /  0 mm
18:40 22.3 °F /  -5.4 °C 8.8 °F /  -12.9 °C 1019.9 in /  34533.8 hPa SSW 11.1 mph /  17.9 km/h 11.1 mph /  17.9 km/h 42 % 0.0 in /  0 mm
18:45 22.1 °F /  -5.5 °C 8.6 °F /  -13 °C 1019.9 in /  34533.8 hPa SW 20.4 mph /  32.8 km/h 20.4 mph /  32.8 km/h 42 % 0.0 in /  0 mm
18:50 22.1 °F /  -5.5 °C 8.9 °F /  -12.8 °C 1019.9 in /  34533.8 hPa SW 16.7 mph /  26.9 km/h 16.7 mph /  26.9 km/h 43 % 0.0 in /  0 mm
18:55 22.2 °F /  -5.4 °C 9.0 °F /  -12.8 °C 1020.9 in /  34567.7 hPa SSE 7.4 mph /  11.9 km/h 7.4 mph /  11.9 km/h 43 % 0.0 in /  0 mm
19:00 22.1 °F /  -5.5 °C 8.9 °F /  -12.8 °C 1020.9 in /  34567.7 hPa West 13.0 mph /  20.9 km/h 13.0 mph /  20.9 km/h 43 % 0.0 in /  0 mm
19:05 21.8 °F /  -5.7 °C 9.0 °F /  -12.8 °C 1020.9 in /  34567.7 hPa West 22.2 mph /  35.7 km/h 22.2 mph /  35.7 km/h 44 % 0.0 in /  0 mm
19:10 21.5 °F /  -5.8 °C 8.7 °F /  -12.9 °C 1020.9 in /  34567.7 hPa SW 15.6 mph /  25.1 km/h 15.6 mph /  25.1 km/h 44 % 0.0 in /  0 mm
19:15 21.1 °F /  -6.1 °C 8.7 °F /  -12.9 °C 1020.9 in /  34567.7 hPa SSW 13.0 mph /  20.9 km/h 13.0 mph /  20.9 km/h 45 % 0.0 in /  0 mm
19:20 21.0 °F /  -6.1 °C 8.6 °F /  -13 °C 1020.9 in /  34567.7 hPa SSW 9.3 mph /  15 km/h 9.3 mph /  15 km/h 45 % 0.0 in /  0 mm
19:25 21.1 °F /  -6.1 °C 8.7 °F /  -12.9 °C 1020.9 in /  34567.7 hPa SSW 5.6 mph /  9 km/h 5.6 mph /  9 km/h 45 % 0.0 in /  0 mm
19:30 21.1 °F /  -6.1 °C 8.7 °F /  -12.9 °C 1020.9 in /  34567.7 hPa SW 13.7 mph /  22 km/h 13.7 mph /  22 km/h 45 % 0.0 in /  0 mm
19:35 20.8 °F /  -6.2 °C 8.8 °F /  -12.9 °C 1020.9 in /  34567.7 hPa SW 13.0 mph /  20.9 km/h 13.0 mph /  20.9 km/h 46 % 0.0 in /  0 mm
19:40 20.5 °F /  -6.4 °C 8.5 °F /  -13.1 °C 1020.9 in /  34567.7 hPa SSW 9.3 mph /  15 km/h 9.3 mph /  15 km/h 46 % 0.0 in /  0 mm
19:45 20.2 °F /  -6.6 °C 8.2 °F /  -13.2 °C 1020.9 in /  34567.7 hPa SSW 14.8 mph /  23.8 km/h 14.8 mph /  23.8 km/h 46 % 0.0 in /  0 mm
19:50 20.2 °F /  -6.6 °C 8.2 °F /  -13.2 °C 1020.9 in /  34567.7 hPa WSW 15.8 mph /  25.4 km/h 15.8 mph /  25.4 km/h 46 % 0.0 in /  0 mm
19:55 20.0 °F /  -6.7 °C 8.0 °F /  -13.3 °C 1020.9 in /  34567.7 hPa SW 11.9 mph /  19.2 km/h 11.9 mph /  19.2 km/h 46 % 0.0 in /  0 mm
20:00 19.9 °F /  -6.7 °C 7.9 °F /  -13.4 °C 1020.9 in /  34567.7 hPa WSW 9.3 mph /  15 km/h 9.3 mph /  15 km/h 46 % 0.0 in /  0 mm
20:05 20.0 °F /  -6.7 °C 8.0 °F /  -13.3 °C 1020.9 in /  34567.7 hPa SW 7.4 mph /  11.9 km/h 7.4 mph /  11.9 km/h 46 % 0.0 in /  0 mm
20:10 19.9 °F /  -6.7 °C 8.2 °F /  -13.2 °C 1020.9 in /  34567.7 hPa SW 5.6 mph /  9 km/h 5.6 mph /  9 km/h 47 % 0.0 in /  0 mm
20:15 19.8 °F /  -6.8 °C 8.2 °F /  -13.2 °C 1020.9 in /  34567.7 hPa SW 9.3 mph /  15 km/h 9.3 mph /  15 km/h 47 % 0.0 in /  0 mm
20:20 19.6 °F /  -6.9 °C 8.0 °F /  -13.3 °C 1020.9 in /  34567.7 hPa WSW 7.4 mph /  11.9 km/h 7.4 mph /  11.9 km/h 47 % 0.0 in /  0 mm
20:25 19.4 °F /  -7 °C 7.8 °F /  -13.4 °C 1019.9 in /  34533.8 hPa SSW 9.3 mph /  15 km/h 9.3 mph /  15 km/h 47 % 0.0 in /  0 mm
20:30 19.4 °F /  -7 °C 7.8 °F /  -13.4 °C 1019.9 in /  34533.8 hPa WSW 9.3 mph /  15 km/h 9.3 mph /  15 km/h 47 % 0.0 in /  0 mm
20:35 19.3 °F /  -7.1 °C 7.7 °F /  -13.5 °C 1019.9 in /  34533.8 hPa SW 7.4 mph /  11.9 km/h 7.4 mph /  11.9 km/h 47 % 0.0 in /  0 mm
20:40 19.3 °F /  -7.1 °C 7.7 °F /  -13.5 °C 1019.9 in /  34533.8 hPa SSW 5.6 mph /  9 km/h 5.6 mph /  9 km/h 47 % 0.0 in /  0 mm
20:45 19.2 °F /  -7.1 °C 7.6 °F /  -13.6 °C 1019.9 in /  34533.8 hPa SW 7.4 mph /  11.9 km/h 7.4 mph /  11.9 km/h 47 % 0.0 in /  0 mm
20:50 19.1 °F /  -7.2 °C 7.5 °F /  -13.6 °C 1019.9 in /  34533.8 hPa SW 5.6 mph /  9 km/h 5.6 mph /  9 km/h 47 % 0.0 in /  0 mm
20:55 19.0 °F /  -7.2 °C 7.4 °F /  -13.7 °C 1019.9 in /  34533.8 hPa WSW 9.7 mph /  15.6 km/h 9.7 mph /  15.6 km/h 47 % 0.0 in /  0 mm
21:00 18.9 °F /  -7.3 °C 7.7 °F /  -13.5 °C 1019.9 in /  34533.8 hPa SSW 3.7 mph /  6 km/h 3.9 mph /  6.3 km/h 48 % 0.0 in /  0 mm
21:05 18.8 °F /  -7.3 °C 7.8 °F /  -13.4 °C 1019.9 in /  34533.8 hPa WSW 3.7 mph /  6 km/h 3.7 mph /  6 km/h 49 % 0.0 in /  0 mm
21:10 18.7 °F /  -7.4 °C 7.8 °F /  -13.4 °C 1019.9 in /  34533.8 hPa WSW 5.6 mph /  9 km/h 5.6 mph /  9 km/h 49 % 0.0 in /  0 mm
21:15 18.6 °F /  -7.4 °C 7.7 °F /  -13.5 °C 1019.9 in /  34533.8 hPa South 5.3 mph /  8.5 km/h 5.3 mph /  8.5 km/h 49 % 0.0 in /  0 mm
21:20 18.5 °F /  -7.5 °C 7.6 °F /  -13.6 °C 1019.9 in /  34533.8 hPa WSW 3.7 mph /  6 km/h 3.7 mph /  6 km/h 49 % 0.0 in /  0 mm
21:25 18.5 °F /  -7.5 °C 7.6 °F /  -13.6 °C 1019.9 in /  34533.8 hPa West 3.7 mph /  6 km/h 3.7 mph /  6 km/h 49 % 0.0 in /  0 mm
21:30 18.5 °F /  -7.5 °C 7.6 °F /  -13.6 °C 1019.9 in /  34533.8 hPa SW 3.7 mph /  6 km/h 3.7 mph /  6 km/h 49 % 0.0 in /  0 mm
21:35 18.4 °F /  -7.6 °C 7.5 °F /  -13.6 °C 1019.9 in /  34533.8 hPa SSW 5.6 mph /  9 km/h 5.6 mph /  9 km/h 49 % 0.0 in /  0 mm
21:40 18.3 °F /  -7.6 °C 7.4 °F /  -13.7 °C 1019.9 in /  34533.8 hPa WSW 5.6 mph /  9 km/h 5.6 mph /  9 km/h 49 % 0.0 in /  0 mm
21:45 18.3 °F /  -7.6 °C 7.7 °F /  -13.5 °C 1019.9 in /  34533.8 hPa WSW 3.5 mph /  5.6 km/h   50 % 0.0 in /  0 mm
21:50 18.2 °F /  -7.7 °C 7.6 °F /  -13.6 °C 1019.9 in /  34533.8 hPa WSW 5.6 mph /  9 km/h 5.6 mph /  9 km/h 50 % 0.0 in /  0 mm
21:55 18.1 °F /  -7.7 °C 7.5 °F /  -13.6 °C 1019.9 in /  34533.8 hPa West 5.6 mph /  9 km/h 5.6 mph /  9 km/h 50 % 0.0 in /  0 mm
22:00 18.1 °F /  -7.7 °C 7.5 °F /  -13.6 °C 1019.9 in /  34533.8 hPa SW 3.7 mph /  6 km/h 3.7 mph /  6 km/h 50 % 0.0 in /  0 mm
22:05 18.1 °F /  -7.7 °C 7.5 °F /  -13.6 °C 1019.9 in /  34533.8 hPa SW 3.7 mph /  6 km/h 3.7 mph /  6 km/h 50 % 0.0 in /  0 mm
22:10 18.0 °F /  -7.8 °C 7.4 °F /  -13.7 °C 1019.9 in /  34533.8 hPa SW 3.7 mph /  6 km/h 3.7 mph /  6 km/h 50 % 0.0 in /  0 mm
22:15 18.0 °F /  -7.8 °C 7.4 °F /  -13.7 °C 1019.9 in /  34533.8 hPa SW 3.9 mph /  6.3 km/h 3.9 mph /  6.3 km/h 50 % 0.0 in /  0 mm
22:20 17.8 °F /  -7.9 °C 7.5 °F /  -13.6 °C 1019.9 in /  34533.8 hPa SW 3.7 mph /  6 km/h 3.7 mph /  6 km/h 51 % 0.0 in /  0 mm
22:25 17.7 °F /  -7.9 °C 7.4 °F /  -13.7 °C 1019.9 in /  34533.8 hPa SW 7.4 mph /  11.9 km/h 7.4 mph /  11.9 km/h 51 % 0.0 in /  0 mm
22:30 17.7 °F /  -7.9 °C 7.4 °F /  -13.7 °C 1019.9 in /  34533.8 hPa WNW 3.7 mph /  6 km/h 3.7 mph /  6 km/h 51 % 0.0 in /  0 mm
22:35 17.7 °F /  -7.9 °C 7.7 °F /  -13.5 °C 1019.9 in /  34533.8 hPa WSW 1.9 mph /  3.1 km/h   52 % 0.0 in /  0 mm
22:40 17.7 °F /  -7.9 °C 7.7 °F /  -13.5 °C 1020.9 in /  34567.7 hPa SW 3.7 mph /  6 km/h 3.7 mph /  6 km/h 52 % 0.0 in /  0 mm
22:45 17.6 °F /  -8 °C 7.9 °F /  -13.4 °C 1020.9 in /  34567.7 hPa Calm     53 % 0.0 in /  0 mm
22:50 17.6 °F /  -8 °C 7.9 °F /  -13.4 °C 1020.9 in /  34567.7 hPa WSW 3.7 mph /  6 km/h 3.7 mph /  6 km/h 53 % 0.0 in /  0 mm
22:51 17.6 °F /  -8 °C 7.9 °F /  -13.4 °C 1020.9 in /  34567.7 hPa SW 3.7 mph /  6 km/h 3.7 mph /  6 km/h 53 % 0.0 in /  0 mm
22:56 17.5 °F /  -8.1 °C 8.1 °F /  -13.3 °C 1019.9 in /  34533.8 hPa WSW 3.7 mph /  6 km/h 3.7 mph /  6 km/h 54 % 0.0 in /  0 mm
23:01 17.5 °F /  -8.1 °C 8.1 °F /  -13.3 °C 1019.9 in /  34533.8 hPa WSW 5.6 mph /  9 km/h 5.6 mph /  9 km/h 54 % 0.0 in /  0 mm
23:06 17.5 °F /  -8.1 °C 8.1 °F /  -13.3 °C 1019.9 in /  34533.8 hPa SW 3.5 mph /  5.6 km/h 3.5 mph /  5.6 km/h 54 % 0.0 in /  0 mm
23:11 17.5 °F /  -8.1 °C 8.3 °F /  -13.2 °C 1019.9 in /  34533.8 hPa SW 2.6 mph /  4.2 km/h 2.6 mph /  4.2 km/h 55 % 0.0 in /  0 mm
23:16 17.5 °F /  -8.1 °C 8.3 °F /  -13.2 °C 1019.9 in /  34533.8 hPa WSW 3.7 mph /  6 km/h 3.7 mph /  6 km/h 55 % 0.0 in /  0 mm
23:21 17.4 °F /  -8.1 °C 8.5 °F /  -13.1 °C 1019.9 in /  34533.8 hPa SW 5.6 mph /  9 km/h 5.6 mph /  9 km/h 56 % 0.0 in /  0 mm
23:26 17.4 °F /  -8.1 °C 8.8 °F /  -12.9 °C 1020.9 in /  34567.7 hPa SW 3.7 mph /  6 km/h 3.7 mph /  6 km/h 57 % 0.0 in /  0 mm
23:31 17.4 °F /  -8.1 °C 9.1 °F /  -12.7 °C 1020.9 in /  34567.7 hPa WNW 3.9 mph /  6.3 km/h 3.9 mph /  6.3 km/h 58 % 0.0 in /  0 mm
23:36 17.4 °F /  -8.1 °C 9.1 °F /  -12.7 °C 1020.9 in /  34567.7 hPa WSW 3.7 mph /  6 km/h 3.7 mph /  6 km/h 58 % 0.0 in /  0 mm
23:41 17.4 °F /  -8.1 °C 9.3 °F /  -12.6 °C 1020.9 in /  34567.7 hPa WSW 3.7 mph /  6 km/h 3.7 mph /  6 km/h 59 % 0.0 in /  0 mm
23:46 17.3 °F /  -8.2 °C 9.4 °F /  -12.6 °C 1020.9 in /  34567.7 hPa SW 3.7 mph /  6 km/h 3.7 mph /  6 km/h 60 % 0.0 in /  0 mm
23:51 17.2 °F /  -8.2 °C 9.6 °F /  -12.4 °C 1020.9 in /  34567.7 hPa SW 3.7 mph /  6 km/h 3.7 mph /  6 km/h 61 % 0.0 in /  0 mm
23:56 17.1 °F /  -8.3 °C 9.5 °F /  -12.5 °C 1019.9 in /  34533.8 hPa SW 3.7 mph /  6 km/h 3.7 mph /  6 km/h 61 % 0.0 in /  0 mm
Meteo Sesrovires
Elogis d' Weather Underground - 1.5 mb

Guio original per  Jim McMurry - jmcmurry@mwt.net Adaptat per a la plantilla per  Wim van der Kuil - Leuven-Template.eu

Trobareu la nostra informacio del temps tambe a:

Weather Underground

AWEKAS